Time;durP1;ratioP1;P1;durP2;ratioP2;P2;SDS_P1;SDS_P2;PMS_P1;PMS_P2;Temp;Humidity;BMP_temperature;BMP_pressure;BME280_temperature;BME280_humidity;BME280_pressure;Samples;Min_cycle;Max_cycle;Signal;HPM_P1;HPM_P2
2023/12/15 00:00:13;;;;;;;38.95;17.88;;;3.90;99.90;;;;;;5118599;27;20030;-86
2023/12/15 00:02:39;;;;;;;36.83;17.30;;;5.30;99.90;;;;;;5155403;27;20155;-86
2023/12/15 00:05:05;;;;;;;41.13;18.13;;;5.90;99.90;;;;;;5137389;27;20043;-86
2023/12/15 00:07:31;;;;;;;32.03;16.48;;;5.40;99.90;;;;;;5147199;27;20081;-86
2023/12/15 00:09:59;;;;;;;35.20;17.17;;;5.40;99.90;;;;;;5155280;27;20042;-86
2023/12/15 00:12:24;;;;;;;38.58;17.38;;;5.20;99.90;;;;;;5136898;27;20399;-86
2023/12/15 00:14:50;;;;;;;32.90;16.73;;;5.30;99.90;;;;;;5118771;27;20051;-86
2023/12/15 00:17:16;;;;;;;34.90;17.75;;;5.40;99.90;;;;;;5135857;27;20495;-86
2023/12/15 00:19:42;;;;;;;35.97;17.67;;;5.50;99.90;;;;;;5153929;27;20104;-86
2023/12/15 00:22:08;;;;;;;31.63;16.67;;;5.50;99.90;;;;;;5118072;27;20060;-86
2023/12/15 00:24:34;;;;;;;39.65;17.23;;;5.60;99.90;;;;;;5118498;27;20034;-86
2023/12/15 00:27:00;;;;;;;39.45;17.88;;;6.00;99.90;;;;;;5154412;27;20050;-86
2023/12/15 00:29:26;;;;;;;37.13;16.92;;;5.60;99.90;;;;;;5135142;27;20038;-86
2023/12/15 00:31:51;;;;;;;36.40;17.73;;;5.50;99.90;;;;;;5118512;27;20043;-86
2023/12/15 00:34:17;;;;;;;34.20;17.98;;;5.40;99.90;;;;;;5118474;27;20050;-86
2023/12/15 00:36:43;;;;;;;38.28;17.35;;;5.70;99.90;;;;;;5153970;27;20440;-86
2023/12/15 00:39:09;;;;;;;36.45;18.25;;;5.00;99.90;;;;;;5118390;27;20047;-86
2023/12/15 00:41:34;;;;;;;35.47;17.27;;;5.50;99.90;;;;;;5135135;27;20047;-86
2023/12/15 00:44:02;;;;;;;36.40;19.02;;;5.70;99.90;;;;;;5135737;27;20467;-86
2023/12/15 00:46:28;;;;;;;37.40;18.77;;;5.60;99.90;;;;;;5135648;27;20559;-86
2023/12/15 00:48:54;;;;;;;38.75;16.73;;;5.80;99.90;;;;;;5135080;27;20046;-85
2023/12/15 00:51:19;;;;;;;41.28;18.17;;;6.20;99.90;;;;;;5135212;27;20133;-86
2023/12/15 00:53:45;;;;;;;33.53;17.25;;;6.50;99.90;;;;;;5135345;27;20042;-86
2023/12/15 00:56:11;;;;;;;41.22;17.98;;;5.90;99.90;;;;;;5117970;27;20045;-86
2023/12/15 00:58:37;;;;;;;42.17;18.38;;;6.20;99.90;;;;;;5135159;27;20055;-85
2023/12/15 01:01:02;;;;;;;40.17;18.55;;;5.60;99.90;;;;;;5135289;27;20050;-86
2023/12/15 01:03:30;;;;;;;38.35;19.58;;;5.60;99.90;;;;;;5135320;27;20099;-86
2023/12/15 01:05:56;;;;;;;43.95;20.25;;;5.60;99.90;;;;;;5135370;27;20437;-85
2023/12/15 01:08:22;;;;;;;41.10;19.05;;;5.90;99.90;;;;;;5153823;27;20039;-86
2023/12/15 01:10:48;;;;;;;33.90;18.58;;;5.40;99.90;;;;;;5117229;27;20039;-86
2023/12/15 01:13:14;;;;;;;39.75;19.05;;;5.10;99.90;;;;;;5135607;27;20518;-86
2023/12/15 01:15:40;;;;;;;41.22;18.63;;;4.30;99.90;;;;;;5118598;27;20085;-86
2023/12/15 01:18:06;;;;;;;40.65;19.48;;;5.40;99.90;;;;;;5135254;27;20118;-85
2023/12/15 01:20:31;;;;;;;45.28;21.13;;;6.30;99.90;;;;;;5117729;27;20042;-86
2023/12/15 01:22:57;;;;;;;40.90;19.70;;;5.10;99.90;;;;;;5118962;27;20038;-85
2023/12/15 01:25:23;;;;;;;45.28;21.23;;;5.70;99.90;;;;;;5135266;27;20043;-86
2023/12/15 01:27:48;;;;;;;48.42;21.80;;;5.70;99.90;;;;;;5135378;27;20096;-86
2023/12/15 01:30:14;;;;;;;46.60;20.38;;;6.40;99.90;;;;;;5152873;27;20026;-86
2023/12/15 01:32:40;;;;;;;44.30;18.85;;;5.70;99.90;;;;;;5134691;27;20045;-86
2023/12/15 01:35:06;;;;;;;43.53;19.65;;;6.40;99.90;;;;;;5138230;27;20038;-86
2023/12/15 01:37:32;;;;;;;45.50;22.25;;;5.70;99.90;;;;;;5139226;27;20418;-86
2023/12/15 01:39:57;;;;;;;51.38;21.85;;;6.20;99.90;;;;;;5139053;27;20047;-86
2023/12/15 01:42:24;;;;;;;47.70;20.83;;;6.50;99.90;;;;;;5138472;27;20046;-85
2023/12/15 01:44:50;;;;;;;55.97;22.55;;;6.00;99.90;;;;;;5157510;27;20048;-86
2023/12/15 01:47:18;;;;;;;46.90;21.25;;;5.80;99.90;;;;;;5156931;27;20126;-86
2023/12/15 01:49:47;;;;;;;51.20;22.25;;;5.80;99.90;;;;;;5138652;27;20559;-85
2023/12/15 01:52:14;;;;;;;55.95;21.70;;;5.80;99.90;;;;;;5154306;27;20038;-86
2023/12/15 01:54:39;;;;;;;61.45;21.92;;;5.80;99.90;;;;;;5121491;27;20086;-85
2023/12/15 01:57:06;;;;;;;57.97;23.45;;;5.80;99.90;;;;;;5156906;27;20495;-86
2023/12/15 01:59:43;;;;;;;52.47;21.77;;;6.60;99.90;;;;;;5138655;27;20042;-86
2023/12/15 02:02:08;;;;;;;59.10;23.60;;;6.40;99.90;;;;;;5138091;27;20414;-85
2023/12/15 02:04:34;;;;;;;61.55;23.23;;;5.90;99.90;;;;;;5138112;27;20035;-86
2023/12/15 02:06:59;;;;;;;63.45;24.45;;;5.10;99.90;;;;;;5121022;27;20149;-86
2023/12/15 02:09:25;;;;;;;58.58;23.73;;;6.60;99.90;;;;;;5138477;27;20043;-86
2023/12/15 02:11:51;;;;;;;59.33;23.40;;;5.90;99.90;;;;;;5157017;27;20095;-86
2023/12/15 02:14:16;;;;;;;53.95;24.33;;;6.60;99.90;;;;;;5156528;27;20043;-86
2023/12/15 02:16:42;;;;;;;59.78;24.00;;;6.30;99.90;;;;;;5138481;27;20420;-86
2023/12/15 02:19:08;;;;;;;50.78;22.90;;;6.70;99.90;;;;;;5156078;27;20043;-85
2023/12/15 02:21:33;;;;;;;67.80;25.00;;;6.20;99.90;;;;;;5137922;27;20051;-86
2023/12/15 02:23:59;;;;;;;64.00;24.60;;;6.10;99.90;;;;;;5120938;27;20117;-85
2023/12/15 02:26:25;;;;;;;72.55;23.85;;;6.50;99.90;;;;;;5137787;27;20062;-85
2023/12/15 02:28:50;;;;;;;58.92;23.90;;;6.00;99.90;;;;;;5156547;27;20038;-86
2023/12/15 02:31:19;;;;;;;62.60;24.77;;;6.40;99.90;;;;;;5137925;27;20503;-86
2023/12/15 02:33:45;;;;;;;63.90;23.10;;;5.70;99.90;;;;;;5137423;27;20054;-86
2023/12/15 02:36:21;;;;;;;59.75;23.05;;;5.30;99.90;;;;;;5155772;27;20039;-86
2023/12/15 02:38:47;;;;;;;71.28;24.73;;;6.00;99.90;;;;;;5137955;27;20049;-86
2023/12/15 02:41:13;;;;;;;57.58;23.35;;;6.10;99.90;;;;;;5156559;27;20089;-86
2023/12/15 02:43:39;;;;;;;63.42;24.10;;;6.80;99.90;;;;;;5119607;27;20122;-85
2023/12/15 02:46:06;;;;;;;69.72;24.48;;;6.60;99.90;;;;;;5154926;27;20466;-86
2023/12/15 02:48:31;;;;;;;64.15;23.30;;;6.00;99.90;;;;;;5137253;27;20039;-86
2023/12/15 02:50:57;;;;;;;59.58;22.58;;;6.10;99.90;;;;;;5136445;27;20126;-85
2023/12/15 02:53:23;;;;;;;68.20;24.60;;;6.20;99.90;;;;;;5137149;27;20078;-85
2023/12/15 02:55:49;;;;;;;70.47;22.90;;;6.80;99.90;;;;;;5137631;27;20454;-86
2023/12/15 02:58:18;;;;;;;70.20;23.50;;;5.60;99.90;;;;;;5155853;27;20049;-85
2023/12/15 03:00:44;;;;;;;57.85;24.10;;;5.30;99.90;;;;;;5137337;27;20095;-85
2023/12/15 03:03:10;;;;;;;62.72;23.38;;;6.10;99.90;;;;;;5155010;27;20502;-86
2023/12/15 03:05:35;;;;;;;60.00;23.55;;;6.90;99.90;;;;;;5155613;27;20053;-86
2023/12/15 03:08:02;;;;;;;70.07;25.08;;;6.10;99.90;;;;;;5137279;27;20050;-86
2023/12/15 03:10:27;;;;;;;62.55;25.70;;;6.00;99.90;;;;;;5155569;27;20479;-85
2023/12/15 03:12:53;;;;;;;78.65;23.75;;;6.40;99.90;;;;;;5129409;27;20042;-86
2023/12/15 03:15:19;;;;;;;80.00;24.25;;;6.70;99.90;;;;;;5136360;27;20061;-86
2023/12/15 03:17:44;;;;;;;58.60;23.52;;;6.00;99.90;;;;;;5136946;27;20039;-86
2023/12/15 03:20:10;;;;;;;65.43;22.15;;;6.00;99.90;;;;;;5136758;27;20043;-85
2023/12/15 03:22:39;;;;;;;73.05;23.35;;;6.00;99.90;;;;;;5155202;27;20046;-86
2023/12/15 03:25:06;;;;;;;61.58;23.73;;;6.20;99.90;;;;;;5155319;27;20039;-86
2023/12/15 03:27:31;;;;;;;62.25;21.52;;;5.90;99.90;;;;;;5120022;27;20082;-85
2023/12/15 03:29:57;;;;;;;53.15;21.83;;;5.90;99.90;;;;;;5119222;27;20077;-86
2023/12/15 03:32:23;;;;;;;48.28;21.33;;;5.80;99.90;;;;;;5119477;27;20050;-86
2023/12/15 03:34:48;;;;;;;58.55;20.52;;;5.90;99.90;;;;;;5154604;27;20038;-86
2023/12/15 03:37:14;;;;;;;50.33;19.88;;;5.80;99.90;;;;;;5119337;27;20043;-86
2023/12/15 03:39:40;;;;;;;51.67;19.67;;;5.80;99.90;;;;;;5155381;27;20045;-85
2023/12/15 03:42:07;;;;;;;50.25;19.10;;;6.30;99.90;;;;;;5154843;27;20038;-85
2023/12/15 03:44:33;;;;;;;48.75;21.23;;;5.60;99.90;;;;;;5135827;27;20038;-86
2023/12/15 03:47:00;;;;;;;51.55;21.05;;;4.50;99.90;;;;;;5135699;27;20094;-85
2023/12/15 03:49:25;;;;;;;55.50;20.83;;;5.60;99.90;;;;;;5116102;27;20099;-86
2023/12/15 03:51:51;;;;;;;52.42;20.60;;;5.90;99.90;;;;;;5134065;27;20125;-86
2023/12/15 03:54:17;;;;;;;45.70;19.08;;;5.60;99.90;;;;;;5117365;27;20041;-86
2023/12/15 03:56:42;;;;;;;44.33;19.83;;;5.50;99.90;;;;;;5136573;27;20045;-86
2023/12/15 03:59:08;;;;;;;42.50;18.90;;;5.80;99.90;;;;;;5136717;27;20125;-87
2023/12/15 04:01:34;;;;;;;48.45;20.48;;;4.30;99.90;;;;;;5135603;27;20047;-86
2023/12/15 04:03:59;;;;;;;48.15;20.67;;;6.20;99.90;;;;;;5127060;27;20042;-86
2023/12/15 04:06:25;;;;;;;45.83;18.77;;;6.30;99.90;;;;;;5154830;27;20125;-86
2023/12/15 04:08:51;;;;;;;41.72;18.90;;;6.20;99.90;;;;;;5157068;27;20046;-86
2023/12/15 04:11:17;;;;;;;45.88;19.23;;;6.10;99.90;;;;;;5143696;27;20039;-85
2023/12/15 04:13:43;;;;;;;42.40;19.17;;;5.30;99.90;;;;;;5118522;27;20406;-86
2023/12/15 04:16:09;;;;;;;40.50;19.10;;;5.30;99.90;;;;;;5135980;27;20379;-86
2023/12/15 04:18:34;;;;;;;47.42;19.45;;;5.90;99.90;;;;;;5136062;27;20039;-86
2023/12/15 04:21:03;;;;;;;42.90;18.73;;;5.90;99.90;;;;;;5136404;27;20038;-85
2023/12/15 04:23:29;;;;;;;37.35;18.73;;;5.60;99.90;;;;;;5118601;27;20043;-85
2023/12/15 04:25:57;;;;;;;35.88;19.17;;;6.00;99.90;;;;;;5134737;27;20051;-86
2023/12/15 04:28:26;;;;;;;42.13;17.38;;;5.50;99.90;;;;;;5154530;27;20054;-86
2023/12/15 04:30:52;;;;;;;41.33;17.40;;;5.90;99.90;;;;;;5118599;27;20039;-86
2023/12/15 04:33:18;;;;;;;47.67;19.02;;;5.20;99.90;;;;;;5154200;27;20047;-85
2023/12/15 04:35:43;;;;;;;35.83;17.73;;;6.00;99.90;;;;;;5135535;27;20176;-85
2023/12/15 04:38:09;;;;;;;44.72;19.02;;;4.70;99.90;;;;;;5153534;27;20406;-85
2023/12/15 04:40:35;;;;;;;46.67;18.60;;;4.50;99.90;;;;;;5135837;27;20035;-85
2023/12/15 04:43:01;;;;;;;37.88;17.70;;;5.90;99.90;;;;;;5136055;27;20121;-85
2023/12/15 04:45:26;;;;;;;46.70;16.88;;;5.10;99.90;;;;;;5119141;27;20363;-86
2023/12/15 04:47:54;;;;;;;46.72;18.38;;;5.20;99.90;;;;;;5153896;27;20054;-86
2023/12/15 04:50:20;;;;;;;42.33;17.58;;;5.30;99.90;;;;;;5118692;27;20052;-86
2023/12/15 04:52:46;;;;;;;48.67;17.75;;;6.00;99.90;;;;;;5135651;27;20138;-86
2023/12/15 04:55:12;;;;;;;34.50;16.90;;;5.20;99.90;;;;;;5154286;27;20534;-86
2023/12/15 04:57:37;;;;;;;48.75;16.90;;;5.20;99.90;;;;;;5135588;27;20058;-86
2023/12/15 05:00:04;;;;;;;35.70;16.70;;;5.90;99.90;;;;;;5135691;27;20446;-86
2023/12/15 05:02:30;;;;;;;36.10;15.68;;;5.10;99.90;;;;;;5153973;27;20417;-86
2023/12/15 05:04:56;;;;;;;39.30;15.95;;;5.60;99.90;;;;;;5118532;27;20130;-86
2023/12/15 05:07:21;;;;;;;42.72;17.17;;;4.50;99.90;;;;;;5153570;27;20122;-86
2023/12/15 05:09:47;;;;;;;41.25;15.07;;;5.10;99.90;;;;;;5137730;27;20096;-86
2023/12/15 05:12:13;;;;;;;42.08;14.68;;;5.10;99.90;;;;;;5158055;27;20039;-86
2023/12/15 05:14:39;;;;;;;34.95;13.95;;;6.00;99.90;;;;;;5121914;27;20053;-86
2023/12/15 05:17:04;;;;;;;38.85;14.15;;;5.60;99.90;;;;;;5157878;27;20390;-85
2023/12/15 05:19:30;;;;;;;33.38;13.68;;;4.70;99.90;;;;;;5139224;27;20152;-86
2023/12/15 05:21:56;;;;;;;39.83;14.27;;;5.80;99.90;;;;;;5121982;27;20439;-86
2023/12/15 05:24:21;;;;;;;37.42;14.00;;;4.00;99.90;;;;;;5157643;27;20407;-86
2023/12/15 05:26:47;;;;;;;39.03;12.90;;;5.40;99.90;;;;;;5157243;27;20034;-86
2023/12/15 05:29:13;;;;;;;28.23;13.50;;;5.70;99.90;;;;;;5157305;27;20035;-86
2023/12/15 05:31:39;;;;;;;38.38;14.55;;;4.70;99.90;;;;;;5139014;27;20054;-85
2023/12/15 05:34:05;;;;;;;35.75;13.93;;;5.00;99.90;;;;;;5138334;27;20550;-84
2023/12/15 05:36:31;;;;;;;29.67;12.50;;;5.00;99.90;;;;;;5138573;27;20080;-86
2023/12/15 05:38:56;;;;;;;33.97;12.35;;;5.80;99.90;;;;;;5157319;27;20131;-86
2023/12/15 05:41:22;;;;;;;43.47;12.63;;;4.00;99.90;;;;;;5121907;27;20368;-86
2023/12/15 05:43:48;;;;;;;43.03;12.95;;;5.70;99.90;;;;;;5121559;27;20030;-86
2023/12/15 05:46:14;;;;;;;38.17;12.52;;;5.70;99.90;;;;;;5138679;27;20088;-86
2023/12/15 05:48:40;;;;;;;32.47;11.80;;;4.90;99.90;;;;;;5157260;27;20502;-85
2023/12/15 05:51:08;;;;;;;31.88;11.63;;;5.20;99.90;;;;;;5139016;27;20042;-86
2023/12/15 05:53:34;;;;;;;32.20;11.30;;;3.80;99.90;;;;;;5121154;27;20047;-86
2023/12/15 05:56:00;;;;;;;34.10;11.73;;;5.70;99.90;;;;;;5120612;27;20043;-86
2023/12/15 05:58:25;;;;;;;37.03;11.25;;;5.80;99.90;;;;;;5138589;27;20074;-86
2023/12/15 06:00:51;;;;;;;37.53;11.13;;;4.80;99.90;;;;;;5138582;27;20479;-86
2023/12/15 06:03:17;;;;;;;29.20;10.65;;;5.50;99.90;;;;;;5121297;27;20046;-86
2023/12/15 06:05:44;;;;;;;38.17;10.93;;;5.50;99.90;;;;;;5137919;27;20075;-86
2023/12/15 06:08:10;;;;;;;36.03;11.23;;;5.50;99.90;;;;;;5156893;27;20117;-86
2023/12/15 06:10:36;;;;;;;31.10;10.10;;;4.70;99.90;;;;;;5138664;27;20047;-86
2023/12/15 06:13:02;;;;;;;32.00;10.90;;;4.80;99.90;;;;;;5121177;27;20073;-86
2023/12/15 06:15:27;;;;;;;38.55;10.68;;;4.70;99.90;;;;;;5138086;27;20035;-86
2023/12/15 06:17:53;;;;;;;30.30;9.40;;;5.10;99.90;;;;;;5120839;27;20050;-86
2023/12/15 06:20:19;;;;;;;37.00;10.10;;;5.40;99.90;;;;;;5156742;27;20053;-86
2023/12/15 06:22:44;;;;;;;29.05;10.60;;;4.80;99.90;;;;;;5138056;27;20351;-86
2023/12/15 06:25:30;;;;;;;32.78;10.10;;;4.80;99.90;;;;;;5121034;27;20030;-86
2023/12/15 06:27:56;;;;;;;29.17;8.93;;;5.30;99.90;;;;;;5139054;27;20182;-86
2023/12/15 06:30:22;;;;;;;34.03;10.90;;;5.50;99.90;;;;;;5141375;27;20073;-86
2023/12/15 06:32:47;;;;;;;44.05;10.27;;;4.80;99.90;;;;;;5177275;27;20069;-86
2023/12/15 06:35:14;;;;;;;38.92;9.35;;;4.80;99.90;;;;;;5176546;27;20117;-86
2023/12/15 06:37:40;;;;;;;34.47;9.35;;;4.80;99.90;;;;;;5120386;27;20121;-86
2023/12/15 06:40:08;;;;;;;34.13;8.73;;;5.60;99.90;;;;;;5120606;27;20494;-86
2023/12/15 06:42:34;;;;;;;41.97;9.90;;;4.90;99.90;;;;;;5120888;27;20039;-86
2023/12/15 06:45:07;;;;;;;27.98;9.05;;;5.10;99.90;;;;;;5137753;27;20133;-86
2023/12/15 06:47:33;;;;;;;38.83;9.68;;;5.50;99.90;;;;;;5137261;27;20462;-86
2023/12/15 06:49:59;;;;;;;39.05;9.10;;;5.10;99.90;;;;;;5137797;27;20372;-85
2023/12/15 06:52:25;;;;;;;30.80;9.02;;;5.20;99.90;;;;;;5120167;27;20099;-86
2023/12/15 06:54:50;;;;;;;28.63;9.10;;;5.80;99.90;;;;;;5136921;27;20049;-86
2023/12/15 06:57:16;;;;;;;34.08;8.95;;;5.10;99.90;;;;;;5137428;27;20517;-86
2023/12/15 06:59:42;;;;;;;41.83;9.52;;;4.90;99.90;;;;;;5137582;27;20045;-86
2023/12/15 07:02:07;;;;;;;36.35;11.63;;;5.50;99.90;;;;;;5155398;27;20502;-86
2023/12/15 07:04:33;;;;;;;46.25;10.43;;;5.60;99.90;;;;;;5155597;27;20443;-86
2023/12/15 07:06:59;;;;;;;39.80;9.77;;;4.60;99.90;;;;;;5137217;27;20491;-86
2023/12/15 07:09:25;;;;;;;31.58;9.27;;;5.50;99.90;;;;;;5155852;27;20509;-86
2023/12/15 07:11:50;;;;;;;35.20;9.45;;;5.50;99.90;;;;;;5137054;27;20039;-86
2023/12/15 07:14:16;;;;;;;39.85;10.70;;;4.40;99.90;;;;;;5137356;27;20065;-85
2023/12/15 07:16:41;;;;;;;39.97;9.85;;;5.40;99.90;;;;;;5136232;27;20143;-86
2023/12/15 07:19:08;;;;;;;26.88;9.35;;;5.50;99.90;;;;;;5136774;27;20380;-86
2023/12/15 07:21:34;;;;;;;35.70;8.63;;;4.00;99.90;;;;;;5154979;27;20399;-86
2023/12/15 07:23:59;;;;;;;25.50;9.00;;;5.00;99.90;;;;;;5155431;27;20035;-86
2023/12/15 07:26:25;;;;;;;56.45;9.65;;;5.70;99.90;;;;;;5128430;27;20400;-86
2023/12/15 07:28:51;;;;;;;38.10;8.38;;;5.50;99.90;;;;;;5168382;27;20474;-85
2023/12/15 07:31:16;;;;;;;30.20;9.15;;;5.40;99.90;;;;;;5139733;27;20042;-86
2023/12/15 07:33:42;;;;;;;38.63;8.27;;;5.90;99.90;;;;;;5157428;27;20045;-86
2023/12/15 07:36:11;;;;;;;48.75;8.68;;;5.20;99.90;;;;;;5158935;27;20035;-86
2023/12/15 07:38:39;;;;;;;36.53;8.75;;;4.50;99.90;;;;;;5136065;27;20038;-86
2023/12/15 07:41:06;;;;;;;31.08;8.35;;;5.00;99.90;;;;;;5136685;27;20038;-86
2023/12/15 07:43:32;;;;;;;40.97;8.27;;;5.00;99.90;;;;;;5135978;27;20045;-85
2023/12/15 07:45:57;;;;;;;39.15;9.65;;;5.20;99.90;;;;;;5136572;27;20031;-86
2023/12/15 07:48:23;;;;;;;44.35;8.15;;;5.40;99.90;;;;;;5154523;27;20859;-88
2023/12/15 07:50:50;;;;;;;34.67;7.97;;;5.20;99.90;;;;;;5136586;27;20132;-86
2023/12/15 07:53:15;;;;;;;31.23;8.35;;;5.60;99.90;;;;;;5122706;27;20054;-86
2023/12/15 07:55:41;;;;;;;35.65;7.60;;;5.40;99.90;;;;;;5155741;27;20038;-85
2023/12/15 07:58:10;;;;;;;27.83;6.45;;;5.70;99.90;;;;;;5139970;27;20050;-86
2023/12/15 08:00:38;;;;;;;33.83;6.50;;;5.40;99.90;;;;;;5139766;27;20475;-87
2023/12/15 08:03:03;;;;;;;34.03;6.90;;;4.90;99.90;;;;;;5175779;27;20459;-86
2023/12/15 08:05:29;;;;;;;29.13;6.93;;;5.60;99.90;;;;;;5174928;27;20038;-85
2023/12/15 08:07:55;;;;;;;31.65;6.70;;;4.50;99.90;;;;;;5174886;27;20120;-86
2023/12/15 08:10:25;;;;;;;39.40;7.43;;;5.70;99.90;;;;;;5156815;27;20039;-85
2023/12/15 08:12:51;;;;;;;35.22;7.28;;;5.70;99.90;;;;;;5155883;27;20462;-85
2023/12/15 08:15:16;;;;;;;34.60;6.47;;;5.00;99.90;;;;;;5156714;27;20046;-86
2023/12/15 08:17:42;;;;;;;44.63;6.43;;;5.00;99.90;;;;;;5156481;27;20397;-85
2023/12/15 08:20:08;;;;;;;27.50;5.20;;;5.70;99.90;;;;;;5156688;27;20052;-86
2023/12/15 08:22:34;;;;;;;31.33;5.95;;;5.50;99.90;;;;;;5175408;27;20074;-87
2023/12/15 08:25:00;;;;;;;33.92;6.28;;;5.50;99.90;;;;;;5138867;27;20080;-84
2023/12/15 08:27:26;;;;;;;36.92;4.95;;;5.60;99.90;;;;;;5156528;27;20708;-85
2023/12/15 08:29:53;;;;;;;40.88;5.78;;;5.90;99.90;;;;;;5156361;27;20050;-85
2023/12/15 08:32:18;;;;;;;27.60;5.22;;;5.10;99.90;;;;;;5155853;27;20557;-85
2023/12/15 08:34:44;;;;;;;34.63;6.78;;;5.20;99.90;;;;;;5156158;27;20050;-85
2023/12/15 08:37:10;;;;;;;33.60;5.43;;;5.20;99.90;;;;;;5174696;27;20038;-85
2023/12/15 08:39:36;;;;;;;48.40;5.43;;;5.30;99.90;;;;;;5155488;27;20042;-85
2023/12/15 08:42:01;;;;;;;32.90;5.60;;;5.80;99.90;;;;;;5175552;27;20041;-84
2023/12/15 08:44:27;;;;;;;34.50;5.47;;;5.40;99.90;;;;;;5158865;27;20541;-85
2023/12/15 08:46:53;;;;;;;36.03;5.28;;;5.70;99.90;;;;;;5142998;27;20042;-85
2023/12/15 08:49:18;;;;;;;36.90;5.60;;;5.40;99.90;;;;;;5179276;27;20398;-85
2023/12/15 08:51:44;;;;;;;32.10;5.53;;;5.90;99.90;;;;;;5179368;27;20092;-85
2023/12/15 08:54:10;;;;;;;28.58;5.13;;;5.50;99.90;;;;;;5159874;27;20102;-85
2023/12/15 08:56:35;;;;;;;32.67;5.75;;;5.60;99.90;;;;;;5160354;27;20114;-86
2023/12/15 08:59:01;;;;;;;49.75;5.32;;;6.10;99.90;;;;;;5159406;27;20046;-85
2023/12/15 09:01:27;;;;;;;40.33;6.53;;;6.50;99.90;;;;;;5159823;27;20062;-85
2023/12/15 09:03:53;;;;;;;42.20;5.88;;;5.50;99.90;;;;;;5178401;27;20050;-85
2023/12/15 09:06:18;;;;;;;33.50;5.63;;;6.00;99.90;;;;;;5158742;27;20133;-85
2023/12/15 09:08:44;;;;;;;44.78;5.95;;;5.50;99.90;;;;;;5160040;27;20034;-86
2023/12/15 09:11:11;;;;;;;31.60;5.35;;;5.50;99.90;;;;;;5178859;27;20429;-85
2023/12/15 09:13:37;;;;;;;43.00;5.97;;;5.00;99.90;;;;;;5142393;27;20095;-85
2023/12/15 09:16:03;;;;;;;38.45;6.32;;;6.10;99.90;;;;;;5160518;27;20414;-86
2023/12/15 09:18:28;;;;;;;34.78;4.90;;;5.60;99.90;;;;;;5158658;27;20041;-85
2023/12/15 09:20:54;;;;;;;36.90;5.38;;;6.10;99.90;;;;;;5160495;27;20050;-85
2023/12/15 09:23:20;;;;;;;29.20;5.00;;;6.20;99.90;;;;;;5178629;27;20038;-85
2023/12/15 09:25:49;;;;;;;33.40;4.43;;;6.40;99.90;;;;;;5160020;27;20104;-85
2023/12/15 09:28:15;;;;;;;34.55;4.82;;;5.70;99.90;;;;;;5159758;27;20046;-85
2023/12/15 09:30:41;;;;;;;38.63;6.05;;;6.40;99.90;;;;;;5150093;27;20064;-86
2023/12/15 09:33:07;;;;;;;23.90;5.32;;;6.50;99.90;;;;;;5159431;27;20053;-85
2023/12/15 09:35:32;;;;;;;37.47;5.18;;;6.50;99.90;;;;;;5160034;27;20045;-85
2023/12/15 09:37:58;;;;;;;29.85;5.03;;;6.60;99.90;;;;;;5159573;27;20054;-84
2023/12/15 09:40:29;;;;;;;38.70;5.63;;;6.10;99.90;;;;;;5177813;27;20121;-85
2023/12/15 09:42:55;;;;;;;34.30;6.00;;;5.10;99.90;;;;;;5159379;27;20070;-86
2023/12/15 09:45:21;;;;;;;34.72;4.88;;;6.60;99.90;;;;;;5159772;27;20104;-85
2023/12/15 09:47:47;;;;;;;40.90;5.78;;;6.10;99.90;;;;;;5159283;27;20125;-86
2023/12/15 09:50:17;;;;;;;34.40;5.85;;;5.50;99.90;;;;;;5159211;27;20034;-85
2023/12/15 09:52:44;;;;;;;33.00;5.70;;;6.10;99.90;;;;;;5141956;27;20103;-85
2023/12/15 09:55:10;;;;;;;35.35;5.25;;;5.00;99.90;;;;;;5158843;27;20046;-86
2023/12/15 09:57:38;;;;;;;22.85;4.82;;;6.20;99.90;;;;;;5159080;27;20049;-85
2023/12/15 10:00:06;;;;;;;34.30;5.53;;;6.80;99.90;;;;;;5177747;27;20098;-86
2023/12/15 10:02:33;;;;;;;39.05;6.28;;;6.20;99.90;;;;;;5141751;27;20042;-86
2023/12/15 10:04:59;;;;;;;34.08;7.07;;;7.00;99.90;;;;;;5178159;27;20436;-85
2023/12/15 10:07:25;;;;;;;31.15;5.40;;;6.40;99.90;;;;;;5158701;27;20094;-86
2023/12/15 10:09:52;;;;;;;31.38;5.53;;;6.30;99.90;;;;;;5177253;27;20406;-85
2023/12/15 10:12:17;;;;;;;38.67;5.43;;;6.40;99.90;;;;;;5177538;27;20121;-84
2023/12/15 10:14:43;;;;;;;38.13;5.57;;;6.70;99.90;;;;;;5157380;27;20617;-84
2023/12/15 10:17:10;;;;;;;34.03;5.47;;;6.70;99.90;;;;;;5158697;27;20045;-85
2023/12/15 10:19:37;;;;;;;37.13;5.18;;;7.00;99.90;;;;;;5141733;27;20143;-86
2023/12/15 10:22:04;;;;;;;32.90;6.18;;;6.80;99.90;;;;;;5140731;27;20038;-86
2023/12/15 10:24:32;;;;;;;36.15;5.05;;;6.50;99.90;;;;;;5177773;27;20038;-85
2023/12/15 10:27:00;;;;;;;39.53;6.82;;;7.00;99.90;;;;;;5141507;27;20038;-85
2023/12/15 10:29:25;;;;;;;28.33;5.30;;;6.80;99.90;;;;;;5142032;27;20042;-85
2023/12/15 10:31:51;;;;;;;31.70;5.65;;;7.10;99.90;;;;;;5177224;27;20452;-84
2023/12/15 10:34:18;;;;;;;40.70;4.95;;;6.60;99.90;;;;;;5141092;27;20045;-84
2023/12/15 10:36:47;;;;;;;31.55;5.35;;;6.70;99.90;;;;;;5158251;27;20034;-84
2023/12/15 10:39:13;;;;;;;35.45;5.95;;;7.10;99.90;;;;;;5158154;27;20113;-86
2023/12/15 10:41:40;;;;;;;36.78;4.82;;;7.40;99.90;;;;;;5157756;27;20389;-85
2023/12/15 10:44:06;;;;;;;28.02;5.13;;;6.70;99.90;;;;;;5158326;27;20093;-85
2023/12/15 10:46:33;;;;;;;30.75;4.78;;;6.80;99.90;;;;;;5141211;27;20435;-85
2023/12/15 10:48:59;;;;;;;28.60;5.40;;;7.20;99.90;;;;;;5158493;27;20042;-85
2023/12/15 10:51:26;;;;;;;32.70;5.80;;;7.30;99.90;;;;;;5139701;27;20078;-85
2023/12/15 10:53:56;;;;;;;32.20;5.45;;;6.90;99.90;;;;;;5157596;27;20082;-84
2023/12/15 10:56:23;;;;;;;29.38;5.75;;;7.20;99.90;;;;;;5177027;27;20066;-85
2023/12/15 10:58:49;;;;;;;33.95;5.75;;;7.00;99.90;;;;;;5158430;27;20042;-85
2023/12/15 11:01:16;;;;;;;35.55;5.43;;;7.10;99.90;;;;;;5141014;27;20042;-85
2023/12/15 11:03:42;;;;;;;44.92;6.63;;;7.20;99.90;;;;;;5158177;27;20038;-86
2023/12/15 11:06:09;;;;;;;44.88;6.82;;;7.50;99.90;;;;;;5176983;27;20042;-86
2023/12/15 11:08:35;;;;;;;36.95;5.90;;;7.30;99.90;;;;;;5176397;27;20041;-86
2023/12/15 11:11:07;;;;;;;37.35;6.85;;;7.50;99.90;;;;;;5177102;27;20046;-86
2023/12/15 11:14:04;;;;;;;39.80;5.28;;;7.20;99.90;;;;;;5158199;27;20398;-85
2023/12/15 11:16:34;;;;;;;40.40;6.13;;;7.00;99.90;;;;;;5138148;27;20074;-86
2023/12/15 11:19:00;;;;;;;33.97;5.07;;;8.00;99.90;;;;;;5174696;27;20042;-84
2023/12/15 11:21:27;;;;;;;27.67;6.85;;;7.40;99.90;;;;;;5157599;27;20109;-86
2023/12/15 11:23:58;;;;;;;31.15;6.47;;;7.40;99.90;;;;;;5157787;27;20041;-85
2023/12/15 11:26:30;;;;;;;35.25;5.50;;;8.00;99.90;;;;;;5175847;27;20046;-84
2023/12/15 11:29:06;;;;;;;30.10;5.57;;;8.20;99.90;;;;;;5157638;27;20038;-85
2023/12/15 11:31:36;;;;;;;35.45;6.00;;;7.50;99.90;;;;;;5174717;27;20042;-87
2023/12/15 11:34:03;;;;;;;32.15;6.50;;;8.00;99.90;;;;;;5140307;27;20039;-87
2023/12/15 11:36:33;;;;;;;29.83;5.95;;;7.60;99.90;;;;;;5175779;27;20416;-86
2023/12/15 11:38:59;;;;;;;38.63;5.85;;;7.80;99.90;;;;;;5176129;27;20050;-86
2023/12/15 11:41:25;;;;;;;30.00;5.63;;;7.60;99.90;;;;;;5155760;27;20038;-87
2023/12/15 11:43:51;;;;;;;33.00;6.53;;;8.00;99.90;;;;;;5157389;27;20050;-85
2023/12/15 11:46:20;;;;;;;37.42;6.22;;;7.60;99.90;;;;;;5139631;27;20038;-84
2023/12/15 11:48:46;;;;;;;49.38;6.47;;;7.80;99.90;;;;;;5139712;27;20087;-84
2023/12/15 11:51:12;;;;;;;29.70;5.93;;;7.70;99.90;;;;;;5157051;27;20034;-84
2023/12/15 11:53:41;;;;;;;41.70;6.50;;;8.00;99.90;;;;;;5157332;27;20041;-85
2023/12/15 11:56:09;;;;;;;45.97;7.38;;;7.80;99.90;;;;;;5157335;27;20034;-84
2023/12/15 11:58:35;;;;;;;31.77;7.07;;;7.90;99.90;;;;;;5156225;27;20051;-84
2023/12/15 12:01:02;;;;;;;29.58;5.85;;;8.60;99.90;;;;;;5156978;27;20448;-84
2023/12/15 12:03:31;;;;;;;45.22;6.38;;;8.00;99.90;;;;;;5156832;27;20050;-84
2023/12/15 12:06:04;;;;;;;35.90;5.88;;;8.60;99.90;;;;;;5175950;27;20118;-84
2023/12/15 12:08:32;;;;;;;34.20;6.35;;;8.10;99.90;;;;;;5157293;27;20389;-84
2023/12/15 12:10:59;;;;;;;38.20;6.22;;;8.60;99.90;;;;;;5175653;27;20451;-85
2023/12/15 12:13:36;;;;;;;31.95;6.10;;;8.20;99.90;;;;;;5155913;27;20046;-84
2023/12/15 12:16:02;;;;;;;29.02;5.88;;;8.40;99.90;;;;;;5175374;27;20073;-85
2023/12/15 12:18:29;;;;;;;25.90;5.10;;;8.40;99.90;;;;;;5156415;27;20086;-85
2023/12/15 12:21:04;;;;;;;40.72;6.47;;;8.80;99.90;;;;;;5156435;27;20050;-86
2023/12/15 12:23:31;;;;;;;34.75;6.45;;;8.40;99.90;;;;;;5139542;27;20081;-85
2023/12/15 12:25:58;;;;;;;41.10;6.43;;;9.10;99.90;;;;;;5156639;27;20077;-85
2023/12/15 12:28:48;;;;;;;28.05;5.25;;;8.30;99.90;;;;;;5156192;27;20048;-84
2023/12/15 12:31:16;;;;;;;30.48;5.82;;;8.30;99.90;;;;;;5156662;27;20070;-85
2023/12/15 12:33:42;;;;;;;36.15;5.82;;;8.30;99.90;;;;;;5175297;27;20038;-85
2023/12/15 12:36:08;;;;;;;36.03;6.07;;;8.20;99.90;;;;;;5175304;27;20045;-85